sensor_id;sensor_type;location;lat;lon;timestamp;P1;durP1;ratioP1;P2;durP2;ratioP2
12210;SDS011;6168;42.658;23.298;2022-09-01T00:00:38;13.43;;;11.93;;
12210;SDS011;6168;42.658;23.298;2022-09-01T00:03:07;13.15;;;12.10;;
12210;SDS011;6168;42.658;23.298;2022-09-01T00:05:36;12.00;;;10.90;;
12210;SDS011;6168;42.658;23.298;2022-09-01T00:08:03;12.43;;;11.25;;
12210;SDS011;6168;42.658;23.298;2022-09-01T00:10:30;12.35;;;11.35;;
12210;SDS011;6168;42.658;23.298;2022-09-01T00:12:58;12.13;;;11.23;;
12210;SDS011;6168;42.658;23.298;2022-09-01T00:15:25;12.38;;;11.32;;
12210;SDS011;6168;42.658;23.298;2022-09-01T00:17:52;13.55;;;12.32;;
12210;SDS011;6168;42.658;23.298;2022-09-01T00:20:20;12.98;;;11.68;;
12210;SDS011;6168;42.658;23.298;2022-09-01T00:22:47;13.80;;;12.60;;
12210;SDS011;6168;42.658;23.298;2022-09-01T00:25:14;13.10;;;11.88;;
12210;SDS011;6168;42.658;23.298;2022-09-01T00:27:44;12.80;;;11.60;;
12210;SDS011;6168;42.658;23.298;2022-09-01T00:30:11;12.93;;;11.80;;
12210;SDS011;6168;42.658;23.298;2022-09-01T00:32:39;12.63;;;11.63;;
12210;SDS011;6168;42.658;23.298;2022-09-01T00:35:10;12.88;;;11.77;;
12210;SDS011;6168;42.658;23.298;2022-09-01T00:37:39;11.70;;;10.63;;
12210;SDS011;6168;42.658;23.298;2022-09-01T00:40:06;12.50;;;11.57;;
12210;SDS011;6168;42.658;23.298;2022-09-01T00:42:35;13.13;;;11.90;;
12210;SDS011;6168;42.658;23.298;2022-09-01T00:45:03;13.20;;;12.05;;
12210;SDS011;6168;42.658;23.298;2022-09-01T00:47:31;12.25;;;11.18;;
12210;SDS011;6168;42.658;23.298;2022-09-01T00:50:00;13.20;;;11.98;;
12210;SDS011;6168;42.658;23.298;2022-09-01T00:52:30;12.30;;;11.27;;
12210;SDS011;6168;42.658;23.298;2022-09-01T00:55:07;13.00;;;11.52;;
12210;SDS011;6168;42.658;23.298;2022-09-01T00:57:36;14.23;;;12.93;;
12210;SDS011;6168;42.658;23.298;2022-09-01T01:00:05;13.10;;;12.00;;
12210;SDS011;6168;42.658;23.298;2022-09-01T01:02:36;14.52;;;13.23;;
12210;SDS011;6168;42.658;23.298;2022-09-01T01:05:05;14.10;;;12.80;;
12210;SDS011;6168;42.658;23.298;2022-09-01T01:07:33;14.18;;;12.88;;
12210;SDS011;6168;42.658;23.298;2022-09-01T01:10:09;15.82;;;14.23;;
12210;SDS011;6168;42.658;23.298;2022-09-01T01:12:38;13.98;;;12.57;;
12210;SDS011;6168;42.658;23.298;2022-09-01T01:15:07;14.45;;;12.63;;
12210;SDS011;6168;42.658;23.298;2022-09-01T01:17:35;14.13;;;12.93;;
12210;SDS011;6168;42.658;23.298;2022-09-01T01:20:03;14.18;;;12.90;;
12210;SDS011;6168;42.658;23.298;2022-09-01T01:22:52;13.93;;;12.70;;
12210;SDS011;6168;42.658;23.298;2022-09-01T01:25:32;15.43;;;14.02;;
12210;SDS011;6168;42.658;23.298;2022-09-01T01:28:06;15.18;;;13.75;;
12210;SDS011;6168;42.658;23.298;2022-09-01T01:30:35;16.48;;;13.93;;
12210;SDS011;6168;42.658;23.298;2022-09-01T01:33:06;15.65;;;13.95;;
12210;SDS011;6168;42.658;23.298;2022-09-01T01:35:33;16.10;;;14.02;;
12210;SDS011;6168;42.658;23.298;2022-09-01T01:38:00;17.00;;;15.30;;
12210;SDS011;6168;42.658;23.298;2022-09-01T01:40:33;15.85;;;14.35;;
12210;SDS011;6168;42.658;23.298;2022-09-01T01:43:00;15.88;;;14.38;;
12210;SDS011;6168;42.658;23.298;2022-09-01T01:45:28;16.17;;;14.30;;
12210;SDS011;6168;42.658;23.298;2022-09-01T01:47:57;16.23;;;14.15;;
12210;SDS011;6168;42.658;23.298;2022-09-01T01:50:33;16.33;;;14.70;;
12210;SDS011;6168;42.658;23.298;2022-09-01T01:53:01;16.90;;;15.40;;
12210;SDS011;6168;42.658;23.298;2022-09-01T01:55:33;17.33;;;15.65;;
12210;SDS011;6168;42.658;23.298;2022-09-01T01:58:00;18.05;;;15.20;;
12210;SDS011;6168;42.658;23.298;2022-09-01T02:00:30;16.98;;;15.23;;
12210;SDS011;6168;42.658;23.298;2022-09-01T02:02:58;16.83;;;15.15;;
12210;SDS011;6168;42.658;23.298;2022-09-01T02:05:27;16.08;;;14.65;;
12210;SDS011;6168;42.658;23.298;2022-09-01T02:07:57;15.98;;;14.55;;
12210;SDS011;6168;42.658;23.298;2022-09-01T02:10:27;15.68;;;14.05;;
12210;SDS011;6168;42.658;23.298;2022-09-01T02:12:57;15.55;;;14.10;;
12210;SDS011;6168;42.658;23.298;2022-09-01T02:15:28;15.35;;;14.00;;
12210;SDS011;6168;42.658;23.298;2022-09-01T02:17:57;15.55;;;13.98;;
12210;SDS011;6168;42.658;23.298;2022-09-01T02:20:24;15.93;;;14.32;;
12210;SDS011;6168;42.658;23.298;2022-09-01T02:22:53;16.20;;;14.52;;
12210;SDS011;6168;42.658;23.298;2022-09-01T02:25:20;15.57;;;14.07;;
12210;SDS011;6168;42.658;23.298;2022-09-01T02:27:47;17.27;;;15.48;;
12210;SDS011;6168;42.658;23.298;2022-09-01T02:30:21;16.23;;;14.30;;
12210;SDS011;6168;42.658;23.298;2022-09-01T02:32:48;15.88;;;14.38;;
12210;SDS011;6168;42.658;23.298;2022-09-01T02:35:15;15.40;;;13.95;;
12210;SDS011;6168;42.658;23.298;2022-09-01T02:37:43;15.27;;;13.77;;
12210;SDS011;6168;42.658;23.298;2022-09-01T02:40:13;17.60;;;15.23;;
12210;SDS011;6168;42.658;23.298;2022-09-01T02:42:40;17.55;;;15.75;;
12210;SDS011;6168;42.658;23.298;2022-09-01T02:45:08;16.73;;;15.25;;
12210;SDS011;6168;42.658;23.298;2022-09-01T02:47:42;18.00;;;15.55;;
12210;SDS011;6168;42.658;23.298;2022-09-01T02:50:11;17.20;;;15.60;;
12210;SDS011;6168;42.658;23.298;2022-09-01T02:52:41;16.00;;;14.43;;
12210;SDS011;6168;42.658;23.298;2022-09-01T02:55:09;20.20;;;16.95;;
12210;SDS011;6168;42.658;23.298;2022-09-01T02:57:37;18.70;;;16.80;;
12210;SDS011;6168;42.658;23.298;2022-09-01T03:00:05;18.67;;;16.77;;
12210;SDS011;6168;42.658;23.298;2022-09-01T03:02:47;18.67;;;16.67;;
12210;SDS011;6168;42.658;23.298;2022-09-01T03:05:15;19.33;;;17.42;;
12210;SDS011;6168;42.658;23.298;2022-09-01T03:07:43;20.15;;;17.60;;
12210;SDS011;6168;42.658;23.298;2022-09-01T03:10:10;20.10;;;17.48;;
12210;SDS011;6168;42.658;23.298;2022-09-01T03:12:37;19.55;;;17.52;;
12210;SDS011;6168;42.658;23.298;2022-09-01T03:15:04;18.33;;;16.52;;
12210;SDS011;6168;42.658;23.298;2022-09-01T03:17:31;19.40;;;17.40;;
12210;SDS011;6168;42.658;23.298;2022-09-01T03:20:00;20.08;;;18.00;;
12210;SDS011;6168;42.658;23.298;2022-09-01T03:22:27;19.23;;;17.20;;
12210;SDS011;6168;42.658;23.298;2022-09-01T03:24:55;20.05;;;17.73;;
12210;SDS011;6168;42.658;23.298;2022-09-01T03:27:21;18.80;;;16.90;;
12210;SDS011;6168;42.658;23.298;2022-09-01T03:29:48;19.95;;;17.95;;
12210;SDS011;6168;42.658;23.298;2022-09-01T03:32:16;24.98;;;18.38;;
12210;SDS011;6168;42.658;23.298;2022-09-01T03:34:43;19.33;;;17.50;;
12210;SDS011;6168;42.658;23.298;2022-09-01T03:37:11;18.33;;;16.30;;
12210;SDS011;6168;42.658;23.298;2022-09-01T03:39:38;22.40;;;18.42;;
12210;SDS011;6168;42.658;23.298;2022-09-01T03:42:05;22.98;;;18.88;;
12210;SDS011;6168;42.658;23.298;2022-09-01T03:44:35;22.05;;;18.77;;
12210;SDS011;6168;42.658;23.298;2022-09-01T03:47:04;21.70;;;19.33;;
12210;SDS011;6168;42.658;23.298;2022-09-01T03:49:34;21.75;;;18.33;;
12210;SDS011;6168;42.658;23.298;2022-09-01T03:52:03;23.48;;;20.00;;
12210;SDS011;6168;42.658;23.298;2022-09-01T03:54:34;21.55;;;18.73;;
12210;SDS011;6168;42.658;23.298;2022-09-01T03:57:01;21.35;;;18.25;;
12210;SDS011;6168;42.658;23.298;2022-09-01T03:59:30;21.05;;;16.65;;
12210;SDS011;6168;42.658;23.298;2022-09-01T04:01:57;19.02;;;16.02;;
12210;SDS011;6168;42.658;23.298;2022-09-01T04:04:24;20.15;;;17.35;;
12210;SDS011;6168;42.658;23.298;2022-09-01T04:06:52;18.13;;;16.30;;
12210;SDS011;6168;42.658;23.298;2022-09-01T04:09:19;17.73;;;15.73;;
12210;SDS011;6168;42.658;23.298;2022-09-01T04:11:47;20.00;;;16.60;;
12210;SDS011;6168;42.658;23.298;2022-09-01T04:14:15;18.67;;;16.70;;
12210;SDS011;6168;42.658;23.298;2022-09-01T04:16:42;19.98;;;16.73;;
12210;SDS011;6168;42.658;23.298;2022-09-01T04:19:26;17.65;;;15.85;;
12210;SDS011;6168;42.658;23.298;2022-09-01T04:21:55;18.48;;;16.00;;
12210;SDS011;6168;42.658;23.298;2022-09-01T04:24:24;21.55;;;16.10;;
12210;SDS011;6168;42.658;23.298;2022-09-01T04:26:55;17.73;;;15.90;;
12210;SDS011;6168;42.658;23.298;2022-09-01T04:29:26;19.40;;;17.30;;
12210;SDS011;6168;42.658;23.298;2022-09-01T04:31:53;19.38;;;17.50;;
12210;SDS011;6168;42.658;23.298;2022-09-01T04:34:21;18.00;;;16.15;;
12210;SDS011;6168;42.658;23.298;2022-09-01T04:36:49;19.38;;;17.00;;
12210;SDS011;6168;42.658;23.298;2022-09-01T04:39:21;20.05;;;17.98;;
12210;SDS011;6168;42.658;23.298;2022-09-01T04:41:49;20.25;;;18.13;;
12210;SDS011;6168;42.658;23.298;2022-09-01T04:44:18;24.10;;;17.83;;
12210;SDS011;6168;42.658;23.298;2022-09-01T04:46:46;20.58;;;18.55;;
12210;SDS011;6168;42.658;23.298;2022-09-01T04:49:16;24.90;;;18.80;;
12210;SDS011;6168;42.658;23.298;2022-09-01T04:51:48;21.80;;;18.83;;
12210;SDS011;6168;42.658;23.298;2022-09-01T04:54:17;18.65;;;16.83;;
12210;SDS011;6168;42.658;23.298;2022-09-01T04:56:45;20.20;;;18.02;;
12210;SDS011;6168;42.658;23.298;2022-09-01T04:59:16;20.33;;;18.20;;
12210;SDS011;6168;42.658;23.298;2022-09-01T05:01:45;24.45;;;18.98;;
12210;SDS011;6168;42.658;23.298;2022-09-01T05:04:15;20.73;;;17.77;;
12210;SDS011;6168;42.658;23.298;2022-09-01T05:06:43;22.95;;;18.35;;
12210;SDS011;6168;42.658;23.298;2022-09-01T05:09:13;26.10;;;20.05;;
12210;SDS011;6168;42.658;23.298;2022-09-01T05:11:42;23.85;;;19.05;;
12210;SDS011;6168;42.658;23.298;2022-09-01T05:14:10;22.83;;;18.85;;
12210;SDS011;6168;42.658;23.298;2022-09-01T05:16:39;27.92;;;21.50;;
12210;SDS011;6168;42.658;23.298;2022-09-01T05:19:07;22.30;;;20.13;;
12210;SDS011;6168;42.658;23.298;2022-09-01T05:21:38;22.20;;;19.90;;
12210;SDS011;6168;42.658;23.298;2022-09-01T05:24:05;19.95;;;17.70;;
12210;SDS011;6168;42.658;23.298;2022-09-01T05:26:33;20.88;;;18.67;;
12210;SDS011;6168;42.658;23.298;2022-09-01T05:29:03;24.65;;;16.30;;
12210;SDS011;6168;42.658;23.298;2022-09-01T05:31:34;19.73;;;17.83;;
12210;SDS011;6168;42.658;23.298;2022-09-01T05:34:03;19.27;;;16.10;;
12210;SDS011;6168;42.658;23.298;2022-09-01T05:36:34;22.38;;;19.83;;
12210;SDS011;6168;42.658;23.298;2022-09-01T05:39:02;18.75;;;16.88;;
12210;SDS011;6168;42.658;23.298;2022-09-01T05:41:31;20.60;;;17.60;;
12210;SDS011;6168;42.658;23.298;2022-09-01T05:44:01;19.52;;;17.42;;
12210;SDS011;6168;42.658;23.298;2022-09-01T05:46:32;20.50;;;18.42;;
12210;SDS011;6168;42.658;23.298;2022-09-01T05:49:01;20.45;;;18.35;;
12210;SDS011;6168;42.658;23.298;2022-09-01T05:51:31;23.08;;;18.80;;
12210;SDS011;6168;42.658;23.298;2022-09-01T05:54:00;22.33;;;19.85;;
12210;SDS011;6168;42.658;23.298;2022-09-01T05:56:29;27.17;;;17.52;;
12210;SDS011;6168;42.658;23.298;2022-09-01T05:58:58;20.02;;;17.95;;
12210;SDS011;6168;42.658;23.298;2022-09-01T06:01:27;22.77;;;17.58;;
12210;SDS011;6168;42.658;23.298;2022-09-01T06:03:56;24.05;;;18.38;;
12210;SDS011;6168;42.658;23.298;2022-09-01T06:06:26;20.55;;;18.40;;
12210;SDS011;6168;42.658;23.298;2022-09-01T06:08:54;21.63;;;17.85;;
12210;SDS011;6168;42.658;23.298;2022-09-01T06:11:22;21.77;;;16.63;;
12210;SDS011;6168;42.658;23.298;2022-09-01T06:13:49;20.15;;;17.98;;
12210;SDS011;6168;42.658;23.298;2022-09-01T06:16:17;19.13;;;17.27;;
12210;SDS011;6168;42.658;23.298;2022-09-01T06:18:44;18.27;;;16.67;;
12210;SDS011;6168;42.658;23.298;2022-09-01T06:21:11;19.83;;;17.83;;
12210;SDS011;6168;42.658;23.298;2022-09-01T06:23:40;20.63;;;18.65;;
12210;SDS011;6168;42.658;23.298;2022-09-01T06:26:14;21.88;;;17.50;;
12210;SDS011;6168;42.658;23.298;2022-09-01T06:28:42;21.73;;;19.52;;
12210;SDS011;6168;42.658;23.298;2022-09-01T06:31:09;27.35;;;20.10;;
12210;SDS011;6168;42.658;23.298;2022-09-01T06:33:37;26.80;;;17.73;;
12210;SDS011;6168;42.658;23.298;2022-09-01T06:36:04;20.33;;;17.00;;
12210;SDS011;6168;42.658;23.298;2022-09-01T06:38:33;17.80;;;15.90;;
12210;SDS011;6168;42.658;23.298;2022-09-01T06:41:03;22.55;;;15.75;;
12210;SDS011;6168;42.658;23.298;2022-09-01T06:43:37;17.63;;;15.80;;
12210;SDS011;6168;42.658;23.298;2022-09-01T06:46:06;19.73;;;16.35;;
12210;SDS011;6168;42.658;23.298;2022-09-01T06:48:33;20.80;;;17.45;;
12210;SDS011;6168;42.658;23.298;2022-09-01T06:51:00;20.02;;;17.25;;
12210;SDS011;6168;42.658;23.298;2022-09-01T06:53:28;20.35;;;15.88;;
12210;SDS011;6168;42.658;23.298;2022-09-01T06:55:55;20.67;;;17.23;;
12210;SDS011;6168;42.658;23.298;2022-09-01T06:58:24;20.42;;;18.27;;
12210;SDS011;6168;42.658;23.298;2022-09-01T07:00:51;18.75;;;16.65;;
12210;SDS011;6168;42.658;23.298;2022-09-01T07:03:18;24.08;;;18.23;;
12210;SDS011;6168;42.658;23.298;2022-09-01T07:05:46;20.20;;;18.08;;
12210;SDS011;6168;42.658;23.298;2022-09-01T07:08:16;19.70;;;17.65;;
12210;SDS011;6168;42.658;23.298;2022-09-01T07:10:46;23.20;;;18.55;;
12210;SDS011;6168;42.658;23.298;2022-09-01T07:13:15;26.08;;;20.77;;
12210;SDS011;6168;42.658;23.298;2022-09-01T07:15:49;25.67;;;19.50;;
12210;SDS011;6168;42.658;23.298;2022-09-01T07:18:18;23.10;;;20.63;;
12210;SDS011;6168;42.658;23.298;2022-09-01T07:20:49;25.33;;;20.08;;
12210;SDS011;6168;42.658;23.298;2022-09-01T07:23:17;23.25;;;19.17;;
12210;SDS011;6168;42.658;23.298;2022-09-01T07:25:46;20.85;;;18.67;;
12210;SDS011;6168;42.658;23.298;2022-09-01T07:28:16;26.08;;;20.23;;
12210;SDS011;6168;42.658;23.298;2022-09-01T07:30:45;21.75;;;19.50;;
12210;SDS011;6168;42.658;23.298;2022-09-01T07:33:15;21.58;;;19.38;;
12210;SDS011;6168;42.658;23.298;2022-09-01T07:35:48;22.08;;;19.77;;
12210;SDS011;6168;42.658;23.298;2022-09-01T07:38:17;26.60;;;20.02;;
12210;SDS011;6168;42.658;23.298;2022-09-01T07:40:44;24.45;;;21.40;;
12210;SDS011;6168;42.658;23.298;2022-09-01T07:43:14;26.73;;;19.85;;
12210;SDS011;6168;42.658;23.298;2022-09-01T07:45:46;21.83;;;19.65;;
12210;SDS011;6168;42.658;23.298;2022-09-01T07:48:17;27.25;;;20.52;;
12210;SDS011;6168;42.658;23.298;2022-09-01T07:50:45;21.85;;;19.40;;
12210;SDS011;6168;42.658;23.298;2022-09-01T07:53:13;26.45;;;21.60;;
12210;SDS011;6168;42.658;23.298;2022-09-01T07:55:42;23.35;;;19.08;;
12210;SDS011;6168;42.658;23.298;2022-09-01T07:58:09;22.20;;;18.58;;
12210;SDS011;6168;42.658;23.298;2022-09-01T08:00:37;25.45;;;18.98;;
12210;SDS011;6168;42.658;23.298;2022-09-01T08:03:04;28.30;;;19.33;;
12210;SDS011;6168;42.658;23.298;2022-09-01T08:05:32;20.67;;;18.40;;
12210;SDS011;6168;42.658;23.298;2022-09-01T08:07:59;25.42;;;17.20;;
12210;SDS011;6168;42.658;23.298;2022-09-01T08:10:26;20.77;;;18.40;;
12210;SDS011;6168;42.658;23.298;2022-09-01T08:12:54;21.05;;;17.52;;
12210;SDS011;6168;42.658;23.298;2022-09-01T08:15:21;28.05;;;18.40;;
12210;SDS011;6168;42.658;23.298;2022-09-01T08:17:48;25.40;;;18.67;;
12210;SDS011;6168;42.658;23.298;2022-09-01T08:20:15;24.25;;;19.95;;
12210;SDS011;6168;42.658;23.298;2022-09-01T08:22:43;25.20;;;22.25;;
12210;SDS011;6168;42.658;23.298;2022-09-01T08:25:10;30.83;;;21.38;;
12210;SDS011;6168;42.658;23.298;2022-09-01T08:27:37;26.45;;;20.90;;
12210;SDS011;6168;42.658;23.298;2022-09-01T08:30:05;25.90;;;20.70;;
12210;SDS011;6168;42.658;23.298;2022-09-01T08:32:34;25.80;;;20.27;;
12210;SDS011;6168;42.658;23.298;2022-09-01T08:35:02;25.23;;;19.58;;
12210;SDS011;6168;42.658;23.298;2022-09-01T08:37:30;20.45;;;17.75;;
12210;SDS011;6168;42.658;23.298;2022-09-01T08:39:59;18.75;;;16.75;;
12210;SDS011;6168;42.658;23.298;2022-09-01T08:42:32;22.35;;;17.98;;
12210;SDS011;6168;42.658;23.298;2022-09-01T08:45:10;20.02;;;17.98;;
12210;SDS011;6168;42.658;23.298;2022-09-01T08:47:42;19.63;;;16.50;;
12210;SDS011;6168;42.658;23.298;2022-09-01T08:50:10;23.05;;;17.35;;
12210;SDS011;6168;42.658;23.298;2022-09-01T08:52:39;19.17;;;17.00;;
12210;SDS011;6168;42.658;23.298;2022-09-01T08:55:15;20.15;;;15.80;;
12210;SDS011;6168;42.658;23.298;2022-09-01T08:57:48;21.98;;;19.38;;
12210;SDS011;6168;42.658;23.298;2022-09-01T09:00:16;23.88;;;19.23;;
12210;SDS011;6168;42.658;23.298;2022-09-01T09:02:52;22.40;;;19.23;;
12210;SDS011;6168;42.658;23.298;2022-09-01T09:05:32;20.35;;;17.27;;
12210;SDS011;6168;42.658;23.298;2022-09-01T09:08:09;20.48;;;18.55;;
12210;SDS011;6168;42.658;23.298;2022-09-01T09:10:53;23.05;;;18.92;;
12210;SDS011;6168;42.658;23.298;2022-09-01T09:13:25;21.83;;;17.58;;
12210;SDS011;6168;42.658;23.298;2022-09-01T09:16:01;23.65;;;17.80;;
12210;SDS011;6168;42.658;23.298;2022-09-01T09:18:35;23.98;;;18.15;;
12210;SDS011;6168;42.658;23.298;2022-09-01T09:21:07;18.48;;;16.35;;
12210;SDS011;6168;42.658;23.298;2022-09-01T09:23:40;18.20;;;16.08;;
12210;SDS011;6168;42.658;23.298;2022-09-01T09:26:12;19.98;;;17.42;;
12210;SDS011;6168;42.658;23.298;2022-09-01T09:28:38;16.45;;;14.93;;
12210;SDS011;6168;42.658;23.298;2022-09-01T09:31:25;19.38;;;14.70;;
12210;SDS011;6168;42.658;23.298;2022-09-01T09:33:56;17.45;;;15.48;;
12210;SDS011;6168;42.658;23.298;2022-09-01T09:36:29;15.02;;;13.57;;
12210;SDS011;6168;42.658;23.298;2022-09-01T09:39:05;15.88;;;14.35;;
12210;SDS011;6168;42.658;23.298;2022-09-01T09:41:36;13.98;;;12.55;;
12210;SDS011;6168;42.658;23.298;2022-09-01T09:44:12;14.15;;;12.65;;
12210;SDS011;6168;42.658;23.298;2022-09-01T09:46:45;14.10;;;12.70;;
12210;SDS011;6168;42.658;23.298;2022-09-01T09:49:16;13.27;;;11.88;;
12210;SDS011;6168;42.658;23.298;2022-09-01T09:51:46;14.52;;;12.60;;
12210;SDS011;6168;42.658;23.298;2022-09-01T09:54:17;16.95;;;13.38;;
12210;SDS011;6168;42.658;23.298;2022-09-01T09:56:48;14.43;;;13.02;;
12210;SDS011;6168;42.658;23.298;2022-09-01T09:59:30;14.68;;;12.18;;
12210;SDS011;6168;42.658;23.298;2022-09-01T10:01:59;13.15;;;11.65;;
12210;SDS011;6168;42.658;23.298;2022-09-01T10:04:47;20.10;;;12.63;;
12210;SDS011;6168;42.658;23.298;2022-09-01T10:07:28;27.33;;;13.85;;
12210;SDS011;6168;42.658;23.298;2022-09-01T10:09:58;14.65;;;13.25;;
12210;SDS011;6168;42.658;23.298;2022-09-01T10:12:28;17.00;;;14.15;;
12210;SDS011;6168;42.658;23.298;2022-09-01T10:14:57;16.90;;;13.05;;
12210;SDS011;6168;42.658;23.298;2022-09-01T10:17:28;15.65;;;13.80;;
12210;SDS011;6168;42.658;23.298;2022-09-01T10:19:59;14.73;;;12.45;;
12210;SDS011;6168;42.658;23.298;2022-09-01T10:22:31;15.52;;;13.05;;
12210;SDS011;6168;42.658;23.298;2022-09-01T10:24:59;13.38;;;11.65;;
12210;SDS011;6168;42.658;23.298;2022-09-01T10:27:30;13.13;;;11.85;;
12210;SDS011;6168;42.658;23.298;2022-09-01T10:30:03;12.65;;;11.25;;
12210;SDS011;6168;42.658;23.298;2022-09-01T10:32:36;16.08;;;13.50;;
12210;SDS011;6168;42.658;23.298;2022-09-01T10:35:07;13.00;;;11.70;;
12210;SDS011;6168;42.658;23.298;2022-09-01T10:37:38;13.63;;;12.15;;
12210;SDS011;6168;42.658;23.298;2022-09-01T10:40:14;14.63;;;13.05;;
12210;SDS011;6168;42.658;23.298;2022-09-01T10:42:45;15.10;;;11.40;;
12210;SDS011;6168;42.658;23.298;2022-09-01T10:45:28;14.15;;;12.25;;
12210;SDS011;6168;42.658;23.298;2022-09-01T10:50:50;11.95;;;10.70;;
12210;SDS011;6168;42.658;23.298;2022-09-01T10:56:04;12.25;;;10.95;;
12210;SDS011;6168;42.658;23.298;2022-09-01T10:58:41;13.65;;;10.90;;
12210;SDS011;6168;42.658;23.298;2022-09-01T11:01:13;13.95;;;10.48;;
12210;SDS011;6168;42.658;23.298;2022-09-01T11:06:33;10.68;;;9.70;;
12210;SDS011;6168;42.658;23.298;2022-09-01T11:09:16;14.10;;;11.07;;
12210;SDS011;6168;42.658;23.298;2022-09-01T11:11:49;11.90;;;10.68;;
12210;SDS011;6168;42.658;23.298;2022-09-01T11:14:28;9.68;;;8.80;;
12210;SDS011;6168;42.658;23.298;2022-09-01T11:17:13;12.07;;;9.70;;
12210;SDS011;6168;42.658;23.298;2022-09-01T11:19:43;12.93;;;10.50;;
12210;SDS011;6168;42.658;23.298;2022-09-01T11:33:58;10.18;;;8.70;;
12210;SDS011;6168;42.658;23.298;2022-09-01T11:36:31;9.88;;;8.82;;
12210;SDS011;6168;42.658;23.298;2022-09-01T11:39:05;8.88;;;8.10;;
12210;SDS011;6168;42.658;23.298;2022-09-01T11:41:41;8.55;;;7.85;;
12210;SDS011;6168;42.658;23.298;2022-09-01T11:44:25;10.07;;;6.97;;
12210;SDS011;6168;42.658;23.298;2022-09-01T11:46:56;7.63;;;6.93;;
12210;SDS011;6168;42.658;23.298;2022-09-01T11:49:28;7.50;;;6.82;;
12210;SDS011;6168;42.658;23.298;2022-09-01T11:51:56;8.15;;;7.45;;
12210;SDS011;6168;42.658;23.298;2022-09-01T11:54:25;7.85;;;7.10;;
12210;SDS011;6168;42.658;23.298;2022-09-01T11:56:53;8.07;;;7.30;;
12210;SDS011;6168;42.658;23.298;2022-09-01T11:59:30;7.22;;;6.68;;
12210;SDS011;6168;42.658;23.298;2022-09-01T12:02:00;6.88;;;6.38;;
12210;SDS011;6168;42.658;23.298;2022-09-01T12:04:30;9.25;;;7.90;;
12210;SDS011;6168;42.658;23.298;2022-09-01T12:07:00;7.40;;;6.70;;
12210;SDS011;6168;42.658;23.298;2022-09-01T12:09:33;9.02;;;7.80;;
12210;SDS011;6168;42.658;23.298;2022-09-01T12:12:02;9.02;;;8.23;;
12210;SDS011;6168;42.658;23.298;2022-09-01T12:14:30;13.57;;;7.60;;
12210;SDS011;6168;42.658;23.298;2022-09-01T12:17:00;7.38;;;6.53;;
12210;SDS011;6168;42.658;23.298;2022-09-01T12:19:30;8.82;;;7.50;;
12210;SDS011;6168;42.658;23.298;2022-09-01T12:22:00;14.35;;;7.90;;
12210;SDS011;6168;42.658;23.298;2022-09-01T12:24:30;8.23;;;7.10;;
12210;SDS011;6168;42.658;23.298;2022-09-01T12:26:59;10.43;;;8.07;;
12210;SDS011;6168;42.658;23.298;2022-09-01T12:29:27;8.38;;;7.63;;
12210;SDS011;6168;42.658;23.298;2022-09-01T12:31:56;7.68;;;7.15;;
12210;SDS011;6168;42.658;23.298;2022-09-01T12:34:26;10.90;;;7.75;;
12210;SDS011;6168;42.658;23.298;2022-09-01T12:37:05;8.95;;;7.22;;
12210;SDS011;6168;42.658;23.298;2022-09-01T12:39:35;7.43;;;6.57;;
12210;SDS011;6168;42.658;23.298;2022-09-01T12:42:04;9.18;;;7.93;;
12210;SDS011;6168;42.658;23.298;2022-09-01T12:44:33;8.32;;;7.45;;
12210;SDS011;6168;42.658;23.298;2022-09-01T12:47:11;9.55;;;7.90;;
12210;SDS011;6168;42.658;23.298;2022-09-01T12:49:41;11.65;;;7.60;;
12210;SDS011;6168;42.658;23.298;2022-09-01T12:52:11;12.55;;;7.40;;
12210;SDS011;6168;42.658;23.298;2022-09-01T12:54:46;8.10;;;7.45;;
12210;SDS011;6168;42.658;23.298;2022-09-01T12:57:22;8.63;;;7.68;;
12210;SDS011;6168;42.658;23.298;2022-09-01T13:00:04;10.63;;;8.02;;
12210;SDS011;6168;42.658;23.298;2022-09-01T13:02:34;8.43;;;7.57;;
12210;SDS011;6168;42.658;23.298;2022-09-01T13:05:23;7.40;;;6.70;;
12210;SDS011;6168;42.658;23.298;2022-09-01T13:07:53;11.55;;;8.60;;
12210;SDS011;6168;42.658;23.298;2022-09-01T13:10:21;7.63;;;7.03;;
12210;SDS011;6168;42.658;23.298;2022-09-01T13:12:52;9.32;;;7.97;;
12210;SDS011;6168;42.658;23.298;2022-09-01T13:15:20;10.43;;;8.63;;
12210;SDS011;6168;42.658;23.298;2022-09-01T13:17:47;8.85;;;8.13;;
12210;SDS011;6168;42.658;23.298;2022-09-01T13:20:14;10.63;;;9.35;;
12210;SDS011;6168;42.658;23.298;2022-09-01T13:22:42;12.63;;;8.52;;
12210;SDS011;6168;42.658;23.298;2022-09-01T13:25:10;9.50;;;8.43;;
12210;SDS011;6168;42.658;23.298;2022-09-01T13:27:38;9.80;;;8.45;;
12210;SDS011;6168;42.658;23.298;2022-09-01T13:30:09;8.98;;;8.02;;
12210;SDS011;6168;42.658;23.298;2022-09-01T13:32:38;8.85;;;8.13;;
12210;SDS011;6168;42.658;23.298;2022-09-01T13:35:05;10.48;;;8.93;;
12210;SDS011;6168;42.658;23.298;2022-09-01T13:37:32;10.32;;;9.25;;
12210;SDS011;6168;42.658;23.298;2022-09-01T13:40:01;9.65;;;8.30;;
12210;SDS011;6168;42.658;23.298;2022-09-01T13:42:28;13.45;;;9.07;;
12210;SDS011;6168;42.658;23.298;2022-09-01T13:44:55;10.68;;;8.60;;
12210;SDS011;6168;42.658;23.298;2022-09-01T13:47:22;10.30;;;8.43;;
12210;SDS011;6168;42.658;23.298;2022-09-01T13:49:49;10.27;;;8.60;;
12210;SDS011;6168;42.658;23.298;2022-09-01T13:52:16;9.20;;;8.35;;
12210;SDS011;6168;42.658;23.298;2022-09-01T13:54:43;7.50;;;6.78;;
12210;SDS011;6168;42.658;23.298;2022-09-01T13:57:13;7.80;;;7.10;;
12210;SDS011;6168;42.658;23.298;2022-09-01T13:59:40;6.38;;;5.93;;
12210;SDS011;6168;42.658;23.298;2022-09-01T14:02:07;7.05;;;6.43;;
12210;SDS011;6168;42.658;23.298;2022-09-01T14:04:34;8.95;;;7.38;;
12210;SDS011;6168;42.658;23.298;2022-09-01T14:07:01;8.23;;;7.35;;
12210;SDS011;6168;42.658;23.298;2022-09-01T14:09:28;12.38;;;7.55;;
12210;SDS011;6168;42.658;23.298;2022-09-01T14:11:55;10.60;;;7.22;;
12210;SDS011;6168;42.658;23.298;2022-09-01T14:14:23;13.13;;;8.23;;
12210;SDS011;6168;42.658;23.298;2022-09-01T14:16:50;8.95;;;8.15;;
12210;SDS011;6168;42.658;23.298;2022-09-01T14:19:18;9.65;;;8.35;;
12210;SDS011;6168;42.658;23.298;2022-09-01T14:21:45;9.63;;;8.82;;
12210;SDS011;6168;42.658;23.298;2022-09-01T14:24:14;9.30;;;8.45;;
12210;SDS011;6168;42.658;23.298;2022-09-01T14:26:44;10.50;;;8.40;;
12210;SDS011;6168;42.658;23.298;2022-09-01T14:29:11;8.65;;;7.85;;
12210;SDS011;6168;42.658;23.298;2022-09-01T14:31:39;9.27;;;8.40;;
12210;SDS011;6168;42.658;23.298;2022-09-01T14:34:07;9.98;;;8.75;;
12210;SDS011;6168;42.658;23.298;2022-09-01T14:36:36;10.90;;;8.73;;
12210;SDS011;6168;42.658;23.298;2022-09-01T14:39:03;10.98;;;7.80;;
12210;SDS011;6168;42.658;23.298;2022-09-01T14:41:30;12.75;;;8.48;;
12210;SDS011;6168;42.658;23.298;2022-09-01T14:43:58;8.75;;;7.88;;
12210;SDS011;6168;42.658;23.298;2022-09-01T14:46:26;7.90;;;7.32;;
12210;SDS011;6168;42.658;23.298;2022-09-01T14:48:59;7.93;;;7.40;;
12210;SDS011;6168;42.658;23.298;2022-09-01T14:51:27;7.32;;;6.90;;
12210;SDS011;6168;42.658;23.298;2022-09-01T14:53:55;7.43;;;7.00;;
12210;SDS011;6168;42.658;23.298;2022-09-01T14:56:23;8.07;;;7.43;;
12210;SDS011;6168;42.658;23.298;2022-09-01T14:58:50;7.88;;;7.30;;
12210;SDS011;6168;42.658;23.298;2022-09-01T15:01:23;8.32;;;7.57;;